createdAt,value
2022-10-18T00:00:15.894Z,4.76
2022-10-18T00:02:43.699Z,4.70
2022-10-18T00:05:10.328Z,4.57
2022-10-18T00:07:37.231Z,4.60
2022-10-18T00:10:04.646Z,4.49
2022-10-18T00:12:34.162Z,4.42
2022-10-18T00:15:01.317Z,4.28
2022-10-18T00:17:28.433Z,4.49
2022-10-18T00:19:55.305Z,4.61
2022-10-18T00:22:21.980Z,4.57
2022-10-18T00:24:48.582Z,4.35
2022-10-18T00:27:15.183Z,4.46
2022-10-18T00:29:41.785Z,4.31
2022-10-18T00:32:08.537Z,4.36
2022-10-18T00:34:36.635Z,4.44
2022-10-18T00:37:03.273Z,4.32
2022-10-18T00:39:29.877Z,4.67
2022-10-18T00:41:56.477Z,4.48
2022-10-18T00:44:25.942Z,4.74
2022-10-18T00:47:02.076Z,4.74
2022-10-18T00:49:40.644Z,4.50
2022-10-18T00:52:16.952Z,4.77
2022-10-18T00:54:47.437Z,4.50
2022-10-18T00:57:14.417Z,4.33
2022-10-18T00:59:42.872Z,4.23
2022-10-18T01:02:10.100Z,4.61
2022-10-18T01:04:39.191Z,4.53
2022-10-18T01:07:30.729Z,4.23
2022-10-18T01:10:07.874Z,4.73
2022-10-18T01:12:47.511Z,4.69
2022-10-18T01:15:23.961Z,4.59
2022-10-18T01:18:12.939Z,4.87
2022-10-18T01:20:39.474Z,4.75
2022-10-18T01:23:17.530Z,5.06
2022-10-18T01:26:05.220Z,4.56
2022-10-18T01:29:06.641Z,4.87
2022-10-18T01:31:44.044Z,4.69
2022-10-18T01:34:17.547Z,4.83
2022-10-18T01:36:52.149Z,4.91
2022-10-18T01:39:34.800Z,4.84
2022-10-18T01:42:07.310Z,4.75
2022-10-18T01:44:37.712Z,4.60
2022-10-18T01:47:09.401Z,4.91
2022-10-18T01:49:36.244Z,4.78
2022-10-18T01:52:03.029Z,4.96
2022-10-18T01:54:35.783Z,4.90
2022-10-18T01:57:14.167Z,5.15
2022-10-18T01:59:54.762Z,5.12
2022-10-18T02:02:40.466Z,4.77
2022-10-18T02:05:13.308Z,5.14
2022-10-18T02:07:55.349Z,5.29
2022-10-18T02:10:39.939Z,5.42
2022-10-18T02:13:08.306Z,5.38
2022-10-18T02:15:41.497Z,5.39
2022-10-18T02:18:24.441Z,5.16
2022-10-18T02:20:52.164Z,5.48
2022-10-18T02:23:25.202Z,5.46
2022-10-18T02:25:53.315Z,5.25
2022-10-18T02:28:20.459Z,5.47
2022-10-18T02:31:05.580Z,5.49
2022-10-18T02:33:32.122Z,5.38
2022-10-18T02:36:18.401Z,5.54
2022-10-18T02:38:47.443Z,5.13
2022-10-18T02:41:23.196Z,5.37
2022-10-18T02:43:49.989Z,5.40
2022-10-18T02:46:16.619Z,5.45
2022-10-18T02:48:43.242Z,5.60
2022-10-18T02:51:09.961Z,5.37
2022-10-18T02:53:36.756Z,5.26
2022-10-18T02:56:03.599Z,4.98
2022-10-18T02:58:30.368Z,5.04
2022-10-18T03:00:57.746Z,5.49
2022-10-18T03:03:25.261Z,5.49
2022-10-18T03:05:52.682Z,5.25
2022-10-18T03:08:20.104Z,5.24
2022-10-18T03:10:47.387Z,5.20
2022-10-18T03:13:14.141Z,5.28
2022-10-18T03:15:40.711Z,5.22
2022-10-18T03:18:07.383Z,5.37
2022-10-18T03:20:34.668Z,5.28
2022-10-18T03:23:01.275Z,5.62
2022-10-18T03:25:27.867Z,5.43
2022-10-18T03:27:54.491Z,5.46
2022-10-18T03:30:21.126Z,5.80
2022-10-18T03:32:47.709Z,5.30
2022-10-18T03:35:14.308Z,5.62
2022-10-18T03:37:40.905Z,5.39
2022-10-18T03:40:08.510Z,5.34
2022-10-18T03:42:35.345Z,5.39
2022-10-18T03:45:02.322Z,5.33
2022-10-18T03:47:29.017Z,5.38
2022-10-18T03:49:57.451Z,5.83
2022-10-18T03:52:24.690Z,5.54
2022-10-18T03:54:51.682Z,5.35
2022-10-18T03:57:18.482Z,5.49
2022-10-18T03:59:45.110Z,5.23
2022-10-18T04:02:11.723Z,5.42
2022-10-18T04:04:38.959Z,4.97
2022-10-18T04:07:06.116Z,5.40
2022-10-18T04:09:32.761Z,5.12
2022-10-18T04:11:59.401Z,5.43
2022-10-18T04:14:26.050Z,5.51
2022-10-18T04:16:52.828Z,5.04
2022-10-18T04:19:19.474Z,5.36
2022-10-18T04:21:46.950Z,5.32
2022-10-18T04:24:13.595Z,5.35
2022-10-18T04:26:40.220Z,5.61
2022-10-18T04:29:06.926Z,5.73
2022-10-18T04:31:33.809Z,6.35
2022-10-18T04:34:00.732Z,6.91
2022-10-18T04:36:27.438Z,6.50
2022-10-18T04:38:54.089Z,5.73
2022-10-18T04:41:20.684Z,6.18
2022-10-18T04:43:47.285Z,6.02
2022-10-18T04:46:13.943Z,5.82
2022-10-18T04:48:52.526Z,6.04
2022-10-18T04:51:19.158Z,6.56
2022-10-18T04:53:45.760Z,6.68
2022-10-18T04:56:15.098Z,6.52
2022-10-18T04:58:41.945Z,6.63
2022-10-18T05:01:08.657Z,6.24
2022-10-18T05:03:35.795Z,6.19
2022-10-18T05:06:02.989Z,6.25
2022-10-18T05:08:30.982Z,5.92
2022-10-18T05:10:57.746Z,5.92
2022-10-18T05:13:24.647Z,6.20
2022-10-18T05:15:51.274Z,5.89
2022-10-18T05:18:18.249Z,6.61
2022-10-18T05:20:46.481Z,6.23
2022-10-18T05:23:13.222Z,5.95
2022-10-18T05:25:44.966Z,6.04
2022-10-18T05:28:34.700Z,5.84
2022-10-18T05:31:08.178Z,6.02
2022-10-18T05:33:35.339Z,5.68
2022-10-18T05:36:02.155Z,5.82
2022-10-18T05:38:29.040Z,5.47
2022-10-18T05:40:55.798Z,5.72
2022-10-18T05:43:22.374Z,6.04
2022-10-18T05:45:50.905Z,5.85
2022-10-18T05:48:18.190Z,5.85
2022-10-18T05:50:45.736Z,5.62
2022-10-18T05:53:24.725Z,5.49
2022-10-18T05:56:02.164Z,5.71
2022-10-18T05:58:28.744Z,11.68
2022-10-18T06:01:00.075Z,10.87
2022-10-18T06:03:28.484Z,8.73
2022-10-18T06:06:07.269Z,6.09
2022-10-18T06:08:35.734Z,5.88
2022-10-18T06:11:15.882Z,6.62
2022-10-18T06:13:44.929Z,9.39
2022-10-18T06:16:13.724Z,12.01
2022-10-18T06:18:40.904Z,7.95
2022-10-18T06:21:08.260Z,6.82
2022-10-18T06:23:35.620Z,6.25
2022-10-18T06:26:05.445Z,5.81
2022-10-18T06:28:35.461Z,5.88
2022-10-18T06:31:02.319Z,5.47
2022-10-18T06:33:31.912Z,5.74
2022-10-18T06:36:04.806Z,5.66
2022-10-18T06:38:32.511Z,5.77
2022-10-18T06:41:00.041Z,5.73
2022-10-18T06:43:27.068Z,5.79
2022-10-18T06:45:55.112Z,5.72
2022-10-18T06:48:22.828Z,6.16
2022-10-18T06:50:58.516Z,6.25
2022-10-18T06:53:27.284Z,6.24
2022-10-18T06:56:00.372Z,6.20
2022-10-18T06:58:27.356Z,5.44
2022-10-18T07:00:53.994Z,5.72
2022-10-18T07:03:20.793Z,5.60
2022-10-18T07:05:49.187Z,5.49
2022-10-18T07:08:16.294Z,5.96
2022-10-18T07:10:43.117Z,6.34
2022-10-18T07:13:31.332Z,6.36
2022-10-18T07:16:06.183Z,6.04
2022-10-18T07:18:38.152Z,5.72
2022-10-18T07:21:10.052Z,5.35
2022-10-18T07:23:39.733Z,5.36
2022-10-18T07:26:28.699Z,5.25
2022-10-18T07:28:58.468Z,5.73
2022-10-18T07:31:26.120Z,5.39
2022-10-18T07:33:53.484Z,5.40
2022-10-18T07:36:20.598Z,5.26
2022-10-18T07:38:47.271Z,5.50
2022-10-18T07:41:14.497Z,5.65
2022-10-18T07:43:49.802Z,5.86
2022-10-18T07:46:17.694Z,5.84
2022-10-18T07:48:44.286Z,6.44
2022-10-18T07:51:11.578Z,6.50
2022-10-18T07:53:38.181Z,6.25
2022-10-18T07:56:09.575Z,6.19
2022-10-18T07:58:36.470Z,6.06
2022-10-18T08:01:04.546Z,5.37
2022-10-18T08:03:31.319Z,5.44
2022-10-18T08:05:58.121Z,5.38
2022-10-18T08:08:27.309Z,5.38
2022-10-18T08:10:54.106Z,5.28
2022-10-18T08:13:21.105Z,5.41
2022-10-18T08:15:47.918Z,5.18
2022-10-18T08:18:14.602Z,5.36
2022-10-18T08:20:45.442Z,5.21
2022-10-18T08:23:12.638Z,5.53
2022-10-18T08:25:39.228Z,5.35
2022-10-18T08:28:06.890Z,5.15
2022-10-18T08:30:35.514Z,5.33
2022-10-18T08:33:02.949Z,5.34
2022-10-18T08:35:29.599Z,5.48
2022-10-18T08:37:56.212Z,5.22
2022-10-18T08:40:22.988Z,5.47
2022-10-18T08:43:27.103Z,5.31
2022-10-18T08:45:54.769Z,5.65
2022-10-18T08:48:32.545Z,5.63
2022-10-18T08:51:00.292Z,5.79
2022-10-18T08:53:40.483Z,5.58
2022-10-18T08:56:12.286Z,5.78
2022-10-18T08:58:39.643Z,5.66
2022-10-18T09:01:21.256Z,5.56
2022-10-18T09:04:20.954Z,5.51
2022-10-18T09:07:19.685Z,5.67
2022-10-18T09:10:20.049Z,6.20
2022-10-18T09:13:01.994Z,6.02
2022-10-18T09:15:49.280Z,5.68
2022-10-18T09:18:28.208Z,5.75
2022-10-18T09:21:01.083Z,6.03
2022-10-18T09:23:51.761Z,5.58
2022-10-18T09:26:24.033Z,6.11
2022-10-18T09:29:13.161Z,6.14
2022-10-18T09:32:15.527Z,6.15
2022-10-18T09:34:51.952Z,6.04
2022-10-18T09:37:22.874Z,5.97
2022-10-18T09:39:55.700Z,5.88
2022-10-18T09:42:34.999Z,6.11
2022-10-18T09:45:13.861Z,6.01
2022-10-18T09:47:51.411Z,5.64
2022-10-18T09:50:27.825Z,5.66
2022-10-18T09:53:12.901Z,6.13
2022-10-18T09:56:06.535Z,5.67
2022-10-18T09:58:48.484Z,5.81
2022-10-18T10:01:27.996Z,5.85
2022-10-18T10:03:56.980Z,5.61
2022-10-18T10:06:32.175Z,5.91
2022-10-18T10:09:05.493Z,5.77
2022-10-18T10:11:38.682Z,5.47
2022-10-18T10:14:24.363Z,5.44
2022-10-18T10:16:58.285Z,5.21
2022-10-18T10:19:30.649Z,4.87
2022-10-18T10:22:03.028Z,5.73
2022-10-18T10:24:36.836Z,5.72
2022-10-18T10:27:07.066Z,5.20
2022-10-18T10:29:45.822Z,5.62
2022-10-18T10:32:18.240Z,5.35
2022-10-18T10:34:45.279Z,5.23
2022-10-18T10:37:33.257Z,5.20
2022-10-18T10:40:24.113Z,5.32
2022-10-18T10:43:08.758Z,5.33
2022-10-18T10:46:06.595Z,5.33
2022-10-18T10:48:41.853Z,5.12
2022-10-18T10:51:13.218Z,4.67
2022-10-18T10:53:42.413Z,4.97
2022-10-18T10:56:28.692Z,5.03
2022-10-18T10:59:01.785Z,4.88
2022-10-18T11:01:32.918Z,5.05
2022-10-18T11:04:05.060Z,4.92
2022-10-18T11:06:50.058Z,5.19
2022-10-18T11:09:27.331Z,5.26
2022-10-18T11:12:05.674Z,5.30
2022-10-18T11:14:40.986Z,4.98
2022-10-18T11:17:25.345Z,5.04
2022-10-18T11:20:07.224Z,4.50
2022-10-18T11:22:42.118Z,5.22
2022-10-18T11:25:14.587Z,4.89
2022-10-18T11:27:46.433Z,4.82
2022-10-18T11:30:45.146Z,4.57
2022-10-18T11:33:56.454Z,4.13
2022-10-18T11:39:13.585Z,4.43
2022-10-18T11:41:49.456Z,4.57
2022-10-18T11:45:21.454Z,4.43
2022-10-18T11:48:10.088Z,4.63
2022-10-18T11:50:45.090Z,4.54
2022-10-18T11:53:27.123Z,4.60
2022-10-18T11:56:12.285Z,4.72
2022-10-18T11:58:53.865Z,4.54
2022-10-18T12:01:28.918Z,4.39
2022-10-18T12:04:15.069Z,4.28
2022-10-18T12:06:49.983Z,4.39
2022-10-18T12:09:24.576Z,4.44
2022-10-18T12:12:01.087Z,4.64
2022-10-18T12:14:58.525Z,4.36
2022-10-18T12:17:44.001Z,3.96
2022-10-18T12:20:27.038Z,4.43
2022-10-18T12:23:03.620Z,4.24
2022-10-18T12:25:35.575Z,4.52
2022-10-18T12:28:08.312Z,4.05
2022-10-18T12:30:43.578Z,4.43
2022-10-18T12:33:27.768Z,4.42
2022-10-18T12:36:07.094Z,4.61
2022-10-18T12:38:39.229Z,3.96
2022-10-18T12:41:06.194Z,4.06
2022-10-18T12:43:35.390Z,3.82
2022-10-18T12:46:09.400Z,3.96
2022-10-18T12:48:43.056Z,4.04
2022-10-18T12:51:22.331Z,4.35
2022-10-18T12:54:12.589Z,4.24
2022-10-18T12:56:42.282Z,4.45
2022-10-18T12:59:14.640Z,4.40
2022-10-18T13:01:50.422Z,4.28
2022-10-18T13:04:29.169Z,4.39
2022-10-18T13:06:58.723Z,4.13
2022-10-18T13:09:29.624Z,4.30
2022-10-18T13:12:16.202Z,4.51
2022-10-18T13:15:24.059Z,4.22
2022-10-18T13:18:19.313Z,4.19
2022-10-18T13:21:17.887Z,4.43
2022-10-18T13:23:57.707Z,4.15
2022-10-18T13:26:43.134Z,4.17
2022-10-18T13:29:21.808Z,4.28
2022-10-18T13:32:03.901Z,4.05
2022-10-18T13:34:36.113Z,4.04
2022-10-18T13:37:23.594Z,4.09
2022-10-18T13:39:51.606Z,4.21
2022-10-18T13:42:30.504Z,4.05
2022-10-18T13:45:31.985Z,4.20
2022-10-18T13:48:29.616Z,4.15
2022-10-18T13:51:26.041Z,4.43
2022-10-18T13:54:14.321Z,4.13
2022-10-18T13:56:51.340Z,3.60
2022-10-18T13:59:40.703Z,4.02
2022-10-18T14:02:51.204Z,3.69
2022-10-18T14:05:47.493Z,3.72
2022-10-18T14:11:24.383Z,3.45
2022-10-18T14:14:32.769Z,3.68
2022-10-18T14:17:17.659Z,3.93
2022-10-18T14:19:46.853Z,3.70
2022-10-18T14:22:21.632Z,4.07
2022-10-18T14:24:59.132Z,4.13
2022-10-18T14:27:31.819Z,4.65
2022-10-18T14:30:14.173Z,4.44
2022-10-18T14:32:51.272Z,4.39
2022-10-18T14:35:32.485Z,4.63
2022-10-18T14:38:01.366Z,4.10
2022-10-18T14:40:39.673Z,4.41
2022-10-18T14:43:10.564Z,4.51
2022-10-18T14:45:37.253Z,4.60
2022-10-18T14:48:21.325Z,4.44
2022-10-18T14:50:58.855Z,4.37
2022-10-18T14:53:30.940Z,3.96
2022-10-18T14:56:02.498Z,4.23
2022-10-18T14:58:32.594Z,4.56
2022-10-18T15:00:59.987Z,3.92
2022-10-18T15:03:27.028Z,3.63
2022-10-18T15:06:02.989Z,3.20
2022-10-18T15:08:43.744Z,3.43
2022-10-18T15:11:14.696Z,3.70
2022-10-18T15:13:55.641Z,3.24
2022-10-18T15:16:27.985Z,3.08
2022-10-18T15:19:14.811Z,3.08
2022-10-18T15:22:19.725Z,2.85
2022-10-18T15:24:43.992Z,2.66
2022-10-18T15:27:20.610Z,3.02
2022-10-18T15:29:47.513Z,2.99
2022-10-18T15:32:29.549Z,2.93
2022-10-18T15:35:09.304Z,3.12
2022-10-18T15:37:45.957Z,3.72
2022-10-18T15:40:21.312Z,3.56
2022-10-18T15:42:56.277Z,3.69
2022-10-18T15:45:23.054Z,4.18
2022-10-18T15:48:06.031Z,4.08
2022-10-18T15:50:44.740Z,3.94
2022-10-18T15:53:20.649Z,4.32
2022-10-18T15:55:49.458Z,4.44
2022-10-18T15:58:39.131Z,4.82
2022-10-18T16:01:15.324Z,4.89
2022-10-18T16:03:43.646Z,4.99
2022-10-18T16:06:14.651Z,4.88
2022-10-18T16:08:47.175Z,5.23
2022-10-18T16:11:17.415Z,4.82
2022-10-18T16:13:44.430Z,4.87
2022-10-18T16:16:18.983Z,5.02
2022-10-18T16:18:45.728Z,4.60
2022-10-18T16:21:31.869Z,4.82
2022-10-18T16:23:58.845Z,4.57
2022-10-18T16:26:27.565Z,4.80
2022-10-18T16:28:55.527Z,4.72
2022-10-18T16:31:25.517Z,4.67
2022-10-18T16:33:54.160Z,4.36
2022-10-18T16:36:23.412Z,4.43
2022-10-18T16:38:51.418Z,4.43
2022-10-18T16:41:18.545Z,5.29
2022-10-18T16:43:47.017Z,5.39
2022-10-18T16:46:23.086Z,4.97
2022-10-18T16:48:51.512Z,5.28
2022-10-18T16:51:18.130Z,5.67
2022-10-18T16:53:45.363Z,5.50
2022-10-18T16:56:18.626Z,5.63
2022-10-18T16:58:48.031Z,5.34
2022-10-18T17:01:18.341Z,5.62
2022-10-18T17:03:45.969Z,6.12
2022-10-18T17:06:27.100Z,6.06
2022-10-18T17:08:55.069Z,7.77
2022-10-18T17:11:23.870Z,7.88
2022-10-18T17:13:50.800Z,6.76
2022-10-18T17:16:33.071Z,6.22
2022-10-18T17:19:03.205Z,5.99
2022-10-18T17:21:31.090Z,5.62
2022-10-18T17:24:00.526Z,5.57
2022-10-18T17:26:29.331Z,5.96
2022-10-18T17:29:04.097Z,6.26
2022-10-18T17:31:31.777Z,8.11
2022-10-18T17:33:58.597Z,6.62
2022-10-18T17:36:25.601Z,5.74
2022-10-18T17:38:54.346Z,6.40
2022-10-18T17:41:21.827Z,6.38
2022-10-18T17:43:52.359Z,6.44
2022-10-18T17:46:19.191Z,6.09
2022-10-18T17:48:46.233Z,5.58
2022-10-18T17:51:17.781Z,5.68
2022-10-18T17:53:45.161Z,5.36
2022-10-18T17:56:13.189Z,5.11
2022-10-18T17:58:40.629Z,5.72
2022-10-18T18:01:14.455Z,5.84
2022-10-18T18:03:42.405Z,6.34
2022-10-18T18:06:30.274Z,6.34
2022-10-18T18:08:59.116Z,7.01
2022-10-18T18:11:25.847Z,7.17
2022-10-18T18:13:55.528Z,6.88
2022-10-18T18:16:25.285Z,7.15
2022-10-18T18:18:54.421Z,8.50
2022-10-18T18:21:22.394Z,9.96
2022-10-18T18:23:50.236Z,9.72
2022-10-18T18:26:17.834Z,10.09
2022-10-18T18:28:46.042Z,10.24
2022-10-18T18:31:22.118Z,9.85
2022-10-18T18:33:50.077Z,9.94
2022-10-18T18:36:17.155Z,10.28
2022-10-18T18:38:44.515Z,9.30
2022-10-18T18:41:12.967Z,9.13
2022-10-18T18:43:43.145Z,9.12
2022-10-18T18:46:11.076Z,8.71
2022-10-18T18:48:38.135Z,8.11
2022-10-18T18:51:07.990Z,7.98
2022-10-18T18:53:38.927Z,7.80
2022-10-18T18:56:11.765Z,8.71
2022-10-18T18:58:39.597Z,8.81
2022-10-18T19:01:21.951Z,8.79
2022-10-18T19:03:53.717Z,9.33
2022-10-18T19:06:46.801Z,8.82
2022-10-18T19:09:15.874Z,8.02
2022-10-18T19:11:44.574Z,8.82
2022-10-18T19:14:12.505Z,8.93
2022-10-18T19:16:41.429Z,8.40
2022-10-18T19:19:13.259Z,8.72
2022-10-18T19:21:49.049Z,8.54
2022-10-18T19:24:15.858Z,8.11
2022-10-18T19:26:55.193Z,8.70
2022-10-18T19:29:26.995Z,8.40
2022-10-18T19:31:56.662Z,8.42
2022-10-18T19:34:25.806Z,8.37
2022-10-18T19:36:52.983Z,8.54
2022-10-18T19:39:22.764Z,8.25
2022-10-18T19:41:52.161Z,8.17
2022-10-18T19:44:19.730Z,8.43
2022-10-18T19:46:47.564Z,8.68
2022-10-18T19:49:14.731Z,8.85
2022-10-18T19:51:41.664Z,8.37
2022-10-18T19:54:08.272Z,8.65
2022-10-18T19:56:34.847Z,8.35
2022-10-18T19:59:01.474Z,8.01
2022-10-18T20:01:28.753Z,8.33
2022-10-18T20:03:55.794Z,8.45
2022-10-18T20:06:23.640Z,8.54
2022-10-18T20:08:51.178Z,8.84
2022-10-18T20:11:21.340Z,8.76
2022-10-18T20:13:48.326Z,8.74
2022-10-18T20:16:17.082Z,8.81
2022-10-18T20:18:43.896Z,8.67
2022-10-18T20:21:13.356Z,8.50
2022-10-18T20:23:42.135Z,8.48
2022-10-18T20:26:17.938Z,7.95
2022-10-18T20:28:52.115Z,7.87
2022-10-18T20:31:19.789Z,8.24
2022-10-18T20:33:47.657Z,7.82
2022-10-18T20:36:17.569Z,7.71
2022-10-18T20:38:46.319Z,7.79
2022-10-18T20:41:19.512Z,7.62
2022-10-18T20:43:54.068Z,7.78
2022-10-18T20:46:21.851Z,7.48
2022-10-18T20:48:50.273Z,8.20
2022-10-18T20:51:17.515Z,8.39
2022-10-18T20:53:44.179Z,8.22
2022-10-18T20:56:20.256Z,8.37
2022-10-18T20:58:49.545Z,8.40
2022-10-18T21:01:22.328Z,8.83
2022-10-18T21:03:51.235Z,8.74
2022-10-18T21:06:20.880Z,8.43
2022-10-18T21:08:52.651Z,8.32
2022-10-18T21:11:19.329Z,8.50
2022-10-18T21:13:50.680Z,9.34
2022-10-18T21:16:19.508Z,9.19
2022-10-18T21:18:48.945Z,8.89
2022-10-18T21:21:19.248Z,10.08
2022-10-18T21:23:47.337Z,9.85
2022-10-18T21:26:18.286Z,9.23
2022-10-18T21:28:45.861Z,9.20
2022-10-18T21:31:16.664Z,9.10
2022-10-18T21:33:45.250Z,9.21
2022-10-18T21:36:12.987Z,9.03
2022-10-18T21:38:39.615Z,9.21
2022-10-18T21:41:10.238Z,8.99
2022-10-18T21:43:42.173Z,9.10
2022-10-18T21:46:10.491Z,8.71
2022-10-18T21:48:38.611Z,8.69
2022-10-18T21:51:08.418Z,8.59
2022-10-18T21:53:36.040Z,8.73
2022-10-18T21:56:12.664Z,8.39
2022-10-18T21:58:40.616Z,8.53
2022-10-18T22:01:19.368Z,8.68
2022-10-18T22:03:50.216Z,8.82
2022-10-18T22:06:17.955Z,7.96
2022-10-18T22:08:57.585Z,7.71
2022-10-18T22:11:31.079Z,7.55
2022-10-18T22:13:57.896Z,7.44
2022-10-18T22:16:24.947Z,7.65
2022-10-18T22:18:53.166Z,7.51
2022-10-18T22:21:20.631Z,7.39
2022-10-18T22:23:50.411Z,7.45
2022-10-18T22:26:23.614Z,7.27
2022-10-18T22:28:56.047Z,7.02
2022-10-18T22:31:26.273Z,7.35
2022-10-18T22:33:55.559Z,7.71
2022-10-18T22:36:23.190Z,7.23
2022-10-18T22:38:50.422Z,7.14
2022-10-18T22:41:17.515Z,7.62
2022-10-18T22:43:44.832Z,7.62
2022-10-18T22:46:14.513Z,7.63
2022-10-18T22:48:41.209Z,7.68
2022-10-18T22:51:08.256Z,7.69
2022-10-18T22:53:36.300Z,7.33
2022-10-18T22:56:04.034Z,7.32
2022-10-18T22:58:31.279Z,7.45
2022-10-18T23:01:03.533Z,7.21
2022-10-18T23:03:30.140Z,7.24
2022-10-18T23:05:57.690Z,7.18
2022-10-18T23:08:25.367Z,7.06
2022-10-18T23:10:55.461Z,7.43
2022-10-18T23:13:23.816Z,7.14
2022-10-18T23:15:51.217Z,7.37
2022-10-18T23:18:18.531Z,7.50
2022-10-18T23:20:45.720Z,7.88
2022-10-18T23:23:13.493Z,7.31
2022-10-18T23:25:40.293Z,7.40
2022-10-18T23:28:07.065Z,7.22
2022-10-18T23:30:37.818Z,7.53
2022-10-18T23:33:04.510Z,7.12
2022-10-18T23:35:31.311Z,7.44
2022-10-18T23:37:58.192Z,6.93
2022-10-18T23:40:24.965Z,7.23
2022-10-18T23:42:51.603Z,7.02
2022-10-18T23:45:18.278Z,7.02
2022-10-18T23:47:46.159Z,6.93
2022-10-18T23:50:12.808Z,6.70
2022-10-18T23:52:39.606Z,6.63
2022-10-18T23:55:06.986Z,6.45
2022-10-18T23:57:33.845Z,6.69
